sensor_id;sensor_type;location;lat;lon;timestamp;P1;durP1;ratioP1;P2;durP2;ratioP2
78324;SDS011;67584;51.400;6.692;2023-02-22T00:00:49;44.58;;;20.55;;
78324;SDS011;67584;51.400;6.692;2023-02-22T00:05:54;43.65;;;21.00;;
78324;SDS011;67584;51.400;6.692;2023-02-22T00:08:24;44.67;;;20.42;;
78324;SDS011;67584;51.400;6.692;2023-02-22T00:11:12;53.90;;;24.85;;
78324;SDS011;67584;51.400;6.692;2023-02-22T00:13:38;48.70;;;20.25;;
78324;SDS011;67584;51.400;6.692;2023-02-22T00:16:12;49.30;;;22.10;;
78324;SDS011;67584;51.400;6.692;2023-02-22T00:18:41;53.58;;;19.52;;
78324;SDS011;67584;51.400;6.692;2023-02-22T00:21:08;49.30;;;19.80;;
78324;SDS011;67584;51.400;6.692;2023-02-22T00:23:35;58.90;;;22.80;;
78324;SDS011;67584;51.400;6.692;2023-02-22T00:26:04;55.63;;;21.88;;
78324;SDS011;67584;51.400;6.692;2023-02-22T00:28:34;52.45;;;23.05;;
78324;SDS011;67584;51.400;6.692;2023-02-22T00:31:01;49.78;;;21.05;;
78324;SDS011;67584;51.400;6.692;2023-02-22T00:33:29;52.80;;;21.38;;
78324;SDS011;67584;51.400;6.692;2023-02-22T00:35:56;53.83;;;21.58;;
78324;SDS011;67584;51.400;6.692;2023-02-22T00:38:21;56.50;;;21.27;;
78324;SDS011;67584;51.400;6.692;2023-02-22T00:40:47;57.85;;;23.05;;
78324;SDS011;67584;51.400;6.692;2023-02-22T00:43:13;59.65;;;23.27;;
78324;SDS011;67584;51.400;6.692;2023-02-22T00:45:39;58.22;;;23.05;;
78324;SDS011;67584;51.400;6.692;2023-02-22T00:48:05;53.95;;;20.92;;
78324;SDS011;67584;51.400;6.692;2023-02-22T00:50:32;57.00;;;22.30;;
78324;SDS011;67584;51.400;6.692;2023-02-22T00:53:00;59.15;;;23.77;;
78324;SDS011;67584;51.400;6.692;2023-02-22T00:55:31;59.60;;;24.40;;
78324;SDS011;67584;51.400;6.692;2023-02-22T00:57:59;62.40;;;23.52;;
78324;SDS011;67584;51.400;6.692;2023-02-22T01:00:29;72.32;;;26.02;;
78324;SDS011;67584;51.400;6.692;2023-02-22T01:02:57;65.60;;;25.75;;
78324;SDS011;67584;51.400;6.692;2023-02-22T01:05:25;66.68;;;25.05;;
78324;SDS011;67584;51.400;6.692;2023-02-22T01:07:52;68.47;;;22.73;;
78324;SDS011;67584;51.400;6.692;2023-02-22T01:10:20;60.65;;;21.52;;
78324;SDS011;67584;51.400;6.692;2023-02-22T01:12:48;64.55;;;24.48;;
78324;SDS011;67584;51.400;6.692;2023-02-22T01:15:15;66.80;;;25.60;;
78324;SDS011;67584;51.400;6.692;2023-02-22T01:17:45;69.45;;;24.02;;
78324;SDS011;67584;51.400;6.692;2023-02-22T01:20:12;73.13;;;23.52;;
78324;SDS011;67584;51.400;6.692;2023-02-22T01:22:41;72.15;;;24.92;;
78324;SDS011;67584;51.400;6.692;2023-02-22T01:25:09;80.70;;;29.38;;
78324;SDS011;67584;51.400;6.692;2023-02-22T01:27:37;81.45;;;27.38;;
78324;SDS011;67584;51.400;6.692;2023-02-22T01:30:04;85.65;;;25.83;;
78324;SDS011;67584;51.400;6.692;2023-02-22T01:32:36;80.72;;;25.75;;
78324;SDS011;67584;51.400;6.692;2023-02-22T01:35:05;99.28;;;28.73;;
78324;SDS011;67584;51.400;6.692;2023-02-22T01:37:34;125.45;;;32.08;;
78324;SDS011;67584;51.400;6.692;2023-02-22T01:40:00;92.43;;;26.70;;
78324;SDS011;67584;51.400;6.692;2023-02-22T01:42:28;128.15;;;33.53;;
78324;SDS011;67584;51.400;6.692;2023-02-22T01:47:54;101.70;;;30.42;;
78324;SDS011;67584;51.400;6.692;2023-02-22T01:50:22;139.88;;;33.47;;
78324;SDS011;67584;51.400;6.692;2023-02-22T01:52:48;237.00;;;38.33;;
78324;SDS011;67584;51.400;6.692;2023-02-22T01:55:14;116.07;;;30.50;;
78324;SDS011;67584;51.400;6.692;2023-02-22T01:57:41;120.53;;;31.48;;
78324;SDS011;67584;51.400;6.692;2023-02-22T02:00:09;114.00;;;27.73;;
78324;SDS011;67584;51.400;6.692;2023-02-22T02:02:40;115.25;;;30.50;;
78324;SDS011;67584;51.400;6.692;2023-02-22T02:05:09;219.45;;;36.78;;
78324;SDS011;67584;51.400;6.692;2023-02-22T02:07:36;107.50;;;32.85;;
78324;SDS011;67584;51.400;6.692;2023-02-22T02:10:05;122.65;;;34.53;;
78324;SDS011;67584;51.400;6.692;2023-02-22T02:12:38;130.35;;;31.20;;
78324;SDS011;67584;51.400;6.692;2023-02-22T02:18:00;106.25;;;30.45;;
78324;SDS011;67584;51.400;6.692;2023-02-22T02:23:41;81.93;;;26.10;;
78324;SDS011;67584;51.400;6.692;2023-02-22T02:37:10;95.35;;;27.25;;
78324;SDS011;67584;51.400;6.692;2023-02-22T02:39:48;112.45;;;27.27;;
78324;SDS011;67584;51.400;6.692;2023-02-22T02:42:22;121.53;;;30.55;;
78324;SDS011;67584;51.400;6.692;2023-02-22T02:45:00;174.15;;;31.02;;
78324;SDS011;67584;51.400;6.692;2023-02-22T02:47:35;151.73;;;32.10;;
78324;SDS011;67584;51.400;6.692;2023-02-22T02:50:10;262.58;;;43.38;;
78324;SDS011;67584;51.400;6.692;2023-02-22T02:52:42;121.22;;;27.35;;
78324;SDS011;67584;51.400;6.692;2023-02-22T02:55:10;214.80;;;41.75;;
78324;SDS011;67584;51.400;6.692;2023-02-22T02:57:39;236.80;;;34.88;;
78324;SDS011;67584;51.400;6.692;2023-02-22T03:00:06;141.98;;;26.25;;
78324;SDS011;67584;51.400;6.692;2023-02-22T03:08:49;215.35;;;31.08;;
78324;SDS011;67584;51.400;6.692;2023-02-22T03:11:25;171.52;;;25.77;;
78324;SDS011;67584;51.400;6.692;2023-02-22T03:14:02;206.23;;;34.40;;
78324;SDS011;67584;51.400;6.692;2023-02-22T03:16:51;83.72;;;23.67;;
78324;SDS011;67584;51.400;6.692;2023-02-22T03:19:32;82.45;;;23.25;;
78324;SDS011;67584;51.400;6.692;2023-02-22T03:32:59;146.75;;;26.10;;
78324;SDS011;67584;51.400;6.692;2023-02-22T03:35:34;88.78;;;22.25;;
78324;SDS011;67584;51.400;6.692;2023-02-22T03:38:05;98.75;;;23.20;;
78324;SDS011;67584;51.400;6.692;2023-02-22T03:40:35;91.72;;;22.60;;
78324;SDS011;67584;51.400;6.692;2023-02-22T03:43:09;109.25;;;24.42;;
78324;SDS011;67584;51.400;6.692;2023-02-22T03:45:42;193.65;;;28.20;;
78324;SDS011;67584;51.400;6.692;2023-02-22T03:50:59;153.20;;;28.30;;
78324;SDS011;67584;51.400;6.692;2023-02-22T03:53:28;146.07;;;26.65;;
78324;SDS011;67584;51.400;6.692;2023-02-22T03:55:56;121.28;;;22.70;;
78324;SDS011;67584;51.400;6.692;2023-02-22T03:58:23;186.48;;;28.48;;
78324;SDS011;67584;51.400;6.692;2023-02-22T04:00:51;137.48;;;25.00;;
78324;SDS011;67584;51.400;6.692;2023-02-22T04:03:18;219.07;;;29.45;;
78324;SDS011;67584;51.400;6.692;2023-02-22T04:05:45;139.48;;;27.13;;
78324;SDS011;67584;51.400;6.692;2023-02-22T04:08:11;124.85;;;26.08;;
78324;SDS011;67584;51.400;6.692;2023-02-22T04:10:37;138.20;;;21.67;;
78324;SDS011;67584;51.400;6.692;2023-02-22T04:13:03;189.40;;;31.27;;
78324;SDS011;67584;51.400;6.692;2023-02-22T04:15:32;272.65;;;34.38;;
78324;SDS011;67584;51.400;6.692;2023-02-22T04:18:02;218.98;;;30.42;;
78324;SDS011;67584;51.400;6.692;2023-02-22T04:20:28;171.90;;;28.88;;
78324;SDS011;67584;51.400;6.692;2023-02-22T04:22:59;174.90;;;29.42;;
78324;SDS011;67584;51.400;6.692;2023-02-22T04:25:25;167.80;;;29.30;;
78324;SDS011;67584;51.400;6.692;2023-02-22T04:27:51;137.77;;;26.05;;
78324;SDS011;67584;51.400;6.692;2023-02-22T04:30:21;183.25;;;29.73;;
78324;SDS011;67584;51.400;6.692;2023-02-22T04:32:47;233.57;;;32.00;;
78324;SDS011;67584;51.400;6.692;2023-02-22T04:35:15;131.05;;;26.42;;
78324;SDS011;67584;51.400;6.692;2023-02-22T04:37:41;180.13;;;27.77;;
78324;SDS011;67584;51.400;6.692;2023-02-22T04:40:07;144.27;;;26.83;;
78324;SDS011;67584;51.400;6.692;2023-02-22T04:42:34;131.18;;;26.25;;
78324;SDS011;67584;51.400;6.692;2023-02-22T04:45:02;94.22;;;24.50;;
78324;SDS011;67584;51.400;6.692;2023-02-22T04:47:29;111.15;;;22.60;;
78324;SDS011;67584;51.400;6.692;2023-02-22T04:49:54;86.57;;;21.23;;
78324;SDS011;67584;51.400;6.692;2023-02-22T04:52:20;88.93;;;21.63;;
78324;SDS011;67584;51.400;6.692;2023-02-22T04:54:46;90.88;;;22.58;;
78324;SDS011;67584;51.400;6.692;2023-02-22T04:57:12;97.28;;;23.92;;
78324;SDS011;67584;51.400;6.692;2023-02-22T04:59:38;97.97;;;23.95;;
78324;SDS011;67584;51.400;6.692;2023-02-22T05:02:04;147.95;;;25.60;;
78324;SDS011;67584;51.400;6.692;2023-02-22T05:04:30;128.75;;;25.17;;
78324;SDS011;67584;51.400;6.692;2023-02-22T05:06:56;112.95;;;26.13;;
78324;SDS011;67584;51.400;6.692;2023-02-22T05:09:21;83.25;;;20.92;;
78324;SDS011;67584;51.400;6.692;2023-02-22T05:11:47;95.30;;;22.38;;
78324;SDS011;67584;51.400;6.692;2023-02-22T05:14:13;101.72;;;21.52;;
78324;SDS011;67584;51.400;6.692;2023-02-22T05:16:39;116.72;;;24.23;;
78324;SDS011;67584;51.400;6.692;2023-02-22T05:19:05;79.57;;;20.45;;
78324;SDS011;67584;51.400;6.692;2023-02-22T05:21:30;106.60;;;24.48;;
78324;SDS011;67584;51.400;6.692;2023-02-22T05:23:57;95.88;;;25.13;;
78324;SDS011;67584;51.400;6.692;2023-02-22T05:26:23;76.32;;;22.45;;
78324;SDS011;67584;51.400;6.692;2023-02-22T05:28:48;90.15;;;23.35;;
78324;SDS011;67584;51.400;6.692;2023-02-22T05:31:14;96.00;;;22.92;;
78324;SDS011;67584;51.400;6.692;2023-02-22T05:33:41;79.50;;;22.90;;
78324;SDS011;67584;51.400;6.692;2023-02-22T05:36:07;73.60;;;21.02;;
78324;SDS011;67584;51.400;6.692;2023-02-22T05:38:33;97.55;;;25.42;;
78324;SDS011;67584;51.400;6.692;2023-02-22T05:41:07;115.85;;;28.33;;
78324;SDS011;67584;51.400;6.692;2023-02-22T05:43:33;60.25;;;20.92;;
78324;SDS011;67584;51.400;6.692;2023-02-22T05:45:58;65.07;;;19.40;;
78324;SDS011;67584;51.400;6.692;2023-02-22T05:48:24;65.40;;;21.17;;
78324;SDS011;67584;51.400;6.692;2023-02-22T05:50:50;72.03;;;21.35;;
78324;SDS011;67584;51.400;6.692;2023-02-22T05:53:15;70.70;;;22.35;;
78324;SDS011;67584;51.400;6.692;2023-02-22T05:55:41;103.97;;;24.98;;
78324;SDS011;67584;51.400;6.692;2023-02-22T05:58:07;86.70;;;26.15;;
78324;SDS011;67584;51.400;6.692;2023-02-22T06:00:32;83.50;;;20.63;;
78324;SDS011;67584;51.400;6.692;2023-02-22T06:03:05;83.50;;;22.80;;
78324;SDS011;67584;51.400;6.692;2023-02-22T06:05:33;115.05;;;26.85;;
78324;SDS011;67584;51.400;6.692;2023-02-22T06:08:00;91.93;;;24.35;;
78324;SDS011;67584;51.400;6.692;2023-02-22T06:10:27;103.68;;;27.42;;
78324;SDS011;67584;51.400;6.692;2023-02-22T06:12:53;72.57;;;24.75;;
78324;SDS011;67584;51.400;6.692;2023-02-22T06:15:20;74.85;;;24.55;;
78324;SDS011;67584;51.400;6.692;2023-02-22T06:17:47;62.13;;;21.35;;
78324;SDS011;67584;51.400;6.692;2023-02-22T06:20:14;76.55;;;23.55;;
78324;SDS011;67584;51.400;6.692;2023-02-22T06:22:41;70.20;;;23.92;;
78324;SDS011;67584;51.400;6.692;2023-02-22T06:25:07;58.70;;;22.88;;
78324;SDS011;67584;51.400;6.692;2023-02-22T06:27:34;72.70;;;24.38;;
78324;SDS011;67584;51.400;6.692;2023-02-22T06:30:00;61.30;;;24.02;;
78324;SDS011;67584;51.400;6.692;2023-02-22T06:32:26;67.00;;;24.05;;
78324;SDS011;67584;51.400;6.692;2023-02-22T06:34:52;56.42;;;23.13;;
78324;SDS011;67584;51.400;6.692;2023-02-22T06:37:18;51.15;;;21.38;;
78324;SDS011;67584;51.400;6.692;2023-02-22T06:39:43;62.38;;;23.88;;
78324;SDS011;67584;51.400;6.692;2023-02-22T06:42:09;57.85;;;22.77;;
78324;SDS011;67584;51.400;6.692;2023-02-22T06:44:35;58.38;;;24.00;;
78324;SDS011;67584;51.400;6.692;2023-02-22T06:47:00;56.75;;;21.05;;
78324;SDS011;67584;51.400;6.692;2023-02-22T06:49:26;57.58;;;22.75;;
78324;SDS011;67584;51.400;6.692;2023-02-22T06:51:52;57.40;;;21.17;;
78324;SDS011;67584;51.400;6.692;2023-02-22T06:54:18;57.53;;;23.52;;
78324;SDS011;67584;51.400;6.692;2023-02-22T06:56:44;49.22;;;21.63;;
78324;SDS011;67584;51.400;6.692;2023-02-22T06:59:10;48.80;;;21.15;;
78324;SDS011;67584;51.400;6.692;2023-02-22T07:01:36;56.63;;;21.35;;
78324;SDS011;67584;51.400;6.692;2023-02-22T07:04:04;54.90;;;24.15;;
78324;SDS011;67584;51.400;6.692;2023-02-22T07:06:29;53.88;;;23.00;;
78324;SDS011;67584;51.400;6.692;2023-02-22T07:08:55;47.10;;;22.55;;
78324;SDS011;67584;51.400;6.692;2023-02-22T07:11:21;51.08;;;23.58;;
78324;SDS011;67584;51.400;6.692;2023-02-22T07:13:46;54.88;;;22.15;;
78324;SDS011;67584;51.400;6.692;2023-02-22T07:16:12;52.45;;;21.85;;
78324;SDS011;67584;51.400;6.692;2023-02-22T07:18:38;53.85;;;23.77;;
78324;SDS011;67584;51.400;6.692;2023-02-22T07:21:03;56.13;;;23.98;;
78324;SDS011;67584;51.400;6.692;2023-02-22T07:23:29;53.75;;;25.10;;
78324;SDS011;67584;51.400;6.692;2023-02-22T07:25:58;50.55;;;24.95;;
78324;SDS011;67584;51.400;6.692;2023-02-22T07:28:24;56.25;;;24.90;;
78324;SDS011;67584;51.400;6.692;2023-02-22T07:30:50;51.47;;;23.48;;
78324;SDS011;67584;51.400;6.692;2023-02-22T07:33:15;54.28;;;23.75;;
78324;SDS011;67584;51.400;6.692;2023-02-22T07:35:45;51.20;;;24.33;;
78324;SDS011;67584;51.400;6.692;2023-02-22T07:38:13;52.95;;;23.05;;
78324;SDS011;67584;51.400;6.692;2023-02-22T07:40:40;48.55;;;22.05;;
78324;SDS011;67584;51.400;6.692;2023-02-22T07:43:19;43.80;;;20.42;;
78324;SDS011;67584;51.400;6.692;2023-02-22T07:45:47;46.97;;;23.13;;
78324;SDS011;67584;51.400;6.692;2023-02-22T07:48:14;39.85;;;22.25;;
78324;SDS011;67584;51.400;6.692;2023-02-22T07:50:41;43.97;;;19.52;;
78324;SDS011;67584;51.400;6.692;2023-02-22T07:53:09;44.47;;;22.52;;
78324;SDS011;67584;51.400;6.692;2023-02-22T07:55:37;41.40;;;21.15;;
78324;SDS011;67584;51.400;6.692;2023-02-22T07:58:04;42.10;;;21.50;;
78324;SDS011;67584;51.400;6.692;2023-02-22T08:00:33;37.28;;;21.40;;
78324;SDS011;67584;51.400;6.692;2023-02-22T08:03:01;35.45;;;21.70;;
78324;SDS011;67584;51.400;6.692;2023-02-22T08:05:29;37.55;;;22.40;;
78324;SDS011;67584;51.400;6.692;2023-02-22T08:07:58;40.55;;;22.10;;
78324;SDS011;67584;51.400;6.692;2023-02-22T08:10:24;43.65;;;21.33;;
78324;SDS011;67584;51.400;6.692;2023-02-22T08:12:51;42.55;;;23.45;;
78324;SDS011;67584;51.400;6.692;2023-02-22T08:15:19;39.92;;;21.05;;
78324;SDS011;67584;51.400;6.692;2023-02-22T08:17:49;40.10;;;24.60;;
78324;SDS011;67584;51.400;6.692;2023-02-22T08:20:15;37.65;;;22.08;;
78324;SDS011;67584;51.400;6.692;2023-02-22T08:22:42;37.78;;;21.50;;
78324;SDS011;67584;51.400;6.692;2023-02-22T08:25:08;35.42;;;20.35;;
78324;SDS011;67584;51.400;6.692;2023-02-22T08:27:34;33.97;;;18.52;;
78324;SDS011;67584;51.400;6.692;2023-02-22T08:29:59;37.20;;;22.02;;
78324;SDS011;67584;51.400;6.692;2023-02-22T08:32:25;34.88;;;22.05;;
78324;SDS011;67584;51.400;6.692;2023-02-22T08:34:51;34.88;;;21.27;;
78324;SDS011;67584;51.400;6.692;2023-02-22T08:37:17;40.35;;;23.60;;
78324;SDS011;67584;51.400;6.692;2023-02-22T08:39:43;32.97;;;19.85;;
78324;SDS011;67584;51.400;6.692;2023-02-22T08:42:09;32.10;;;19.75;;
78324;SDS011;67584;51.400;6.692;2023-02-22T08:44:36;28.42;;;15.82;;
78324;SDS011;67584;51.400;6.692;2023-02-22T08:47:02;28.65;;;16.25;;
78324;SDS011;67584;51.400;6.692;2023-02-22T08:49:28;27.95;;;16.55;;
78324;SDS011;67584;51.400;6.692;2023-02-22T08:51:54;24.08;;;14.73;;
78324;SDS011;67584;51.400;6.692;2023-02-22T08:54:19;26.15;;;14.52;;
78324;SDS011;67584;51.400;6.692;2023-02-22T08:56:46;24.17;;;14.52;;
78324;SDS011;67584;51.400;6.692;2023-02-22T08:59:12;27.95;;;15.00;;
78324;SDS011;67584;51.400;6.692;2023-02-22T09:01:38;29.90;;;16.13;;
78324;SDS011;67584;51.400;6.692;2023-02-22T09:04:04;26.83;;;14.43;;
78324;SDS011;67584;51.400;6.692;2023-02-22T09:06:30;23.60;;;15.27;;
78324;SDS011;67584;51.400;6.692;2023-02-22T09:08:56;20.70;;;13.45;;
78324;SDS011;67584;51.400;6.692;2023-02-22T09:11:21;26.17;;;14.77;;
78324;SDS011;67584;51.400;6.692;2023-02-22T09:13:47;27.60;;;14.45;;
78324;SDS011;67584;51.400;6.692;2023-02-22T09:16:13;24.08;;;14.00;;
78324;SDS011;67584;51.400;6.692;2023-02-22T09:18:38;27.50;;;15.10;;
78324;SDS011;67584;51.400;6.692;2023-02-22T09:21:04;22.02;;;12.70;;
78324;SDS011;67584;51.400;6.692;2023-02-22T09:23:30;21.63;;;12.07;;
78324;SDS011;67584;51.400;6.692;2023-02-22T09:25:56;21.15;;;12.50;;
78324;SDS011;67584;51.400;6.692;2023-02-22T09:28:24;16.63;;;10.95;;
78324;SDS011;67584;51.400;6.692;2023-02-22T09:30:51;22.02;;;11.48;;
78324;SDS011;67584;51.400;6.692;2023-02-22T09:33:17;19.20;;;12.05;;
78324;SDS011;67584;51.400;6.692;2023-02-22T09:35:44;15.60;;;10.77;;
78324;SDS011;67584;51.400;6.692;2023-02-22T09:38:12;17.00;;;11.05;;
78324;SDS011;67584;51.400;6.692;2023-02-22T09:40:41;20.25;;;11.93;;
78324;SDS011;67584;51.400;6.692;2023-02-22T09:49:03;16.63;;;10.45;;
78324;SDS011;67584;51.400;6.692;2023-02-22T09:51:39;17.45;;;12.02;;
78324;SDS011;67584;51.400;6.692;2023-02-22T09:57:04;18.73;;;11.30;;
78324;SDS011;67584;51.400;6.692;2023-02-22T09:59:38;15.75;;;10.77;;
78324;SDS011;67584;51.400;6.692;2023-02-22T10:04:55;16.02;;;10.90;;
78324;SDS011;67584;51.400;6.692;2023-02-22T10:08:12;17.35;;;11.20;;
78324;SDS011;67584;51.400;6.692;2023-02-22T10:10:24;14.95;;;11.13;;
78324;SDS011;67584;51.400;6.692;2023-02-22T10:21:25;19.20;;;12.13;;
78324;SDS011;67584;51.400;6.692;2023-02-22T10:26:42;21.80;;;11.93;;
78324;SDS011;67584;51.400;6.692;2023-02-22T10:29:17;16.02;;;12.02;;
78324;SDS011;67584;51.400;6.692;2023-02-22T10:32:01;18.50;;;10.88;;
78324;SDS011;67584;51.400;6.692;2023-02-22T10:40:13;15.60;;;10.65;;
78324;SDS011;67584;51.400;6.692;2023-02-22T10:42:41;14.75;;;9.25;;
78324;SDS011;67584;51.400;6.692;2023-02-22T10:45:24;28.50;;;12.68;;
78324;SDS011;67584;51.400;6.692;2023-02-22T10:47:57;17.33;;;10.80;;
78324;SDS011;67584;51.400;6.692;2023-02-22T10:50:29;16.90;;;10.63;;
78324;SDS011;67584;51.400;6.692;2023-02-22T10:52:56;13.80;;;8.85;;
78324;SDS011;67584;51.400;6.692;2023-02-22T10:55:21;20.08;;;10.70;;
78324;SDS011;67584;51.400;6.692;2023-02-22T10:57:48;14.45;;;10.73;;
78324;SDS011;67584;51.400;6.692;2023-02-22T11:00:22;15.70;;;9.23;;
78324;SDS011;67584;51.400;6.692;2023-02-22T11:03:00;16.80;;;10.20;;
78324;SDS011;67584;51.400;6.692;2023-02-22T11:05:39;16.33;;;11.45;;
78324;SDS011;67584;51.400;6.692;2023-02-22T11:11:01;19.05;;;11.80;;
78324;SDS011;67584;51.400;6.692;2023-02-22T11:13:42;15.00;;;9.93;;
78324;SDS011;67584;51.400;6.692;2023-02-22T11:18:45;14.07;;;9.02;;
78324;SDS011;67584;51.400;6.692;2023-02-22T11:21:11;15.57;;;8.75;;
78324;SDS011;67584;51.400;6.692;2023-02-22T11:23:44;15.82;;;10.80;;
78324;SDS011;67584;51.400;6.692;2023-02-22T11:26:11;17.08;;;10.38;;
78324;SDS011;67584;51.400;6.692;2023-02-22T11:28:42;17.10;;;10.73;;
78324;SDS011;67584;51.400;6.692;2023-02-22T11:31:17;12.70;;;9.52;;
78324;SDS011;67584;51.400;6.692;2023-02-22T11:33:50;13.93;;;9.30;;
78324;SDS011;67584;51.400;6.692;2023-02-22T11:36:35;16.23;;;9.27;;
78324;SDS011;67584;51.400;6.692;2023-02-22T11:39:05;13.20;;;9.23;;
78324;SDS011;67584;51.400;6.692;2023-02-22T11:41:58;14.32;;;9.32;;
78324;SDS011;67584;51.400;6.692;2023-02-22T11:44:44;14.90;;;10.40;;
78324;SDS011;67584;51.400;6.692;2023-02-22T11:47:11;14.63;;;9.35;;
78324;SDS011;67584;51.400;6.692;2023-02-22T11:49:37;14.15;;;9.90;;
78324;SDS011;67584;51.400;6.692;2023-02-22T11:55:00;13.98;;;10.13;;
78324;SDS011;67584;51.400;6.692;2023-02-22T11:58:16;13.73;;;9.27;;
78324;SDS011;67584;51.400;6.692;2023-02-22T12:00:52;14.93;;;10.05;;
78324;SDS011;67584;51.400;6.692;2023-02-22T12:03:36;13.57;;;8.80;;
78324;SDS011;67584;51.400;6.692;2023-02-22T12:11:49;11.40;;;7.53;;
78324;SDS011;67584;51.400;6.692;2023-02-22T12:17:43;13.13;;;9.07;;
78324;SDS011;67584;51.400;6.692;2023-02-22T12:20:20;12.63;;;8.20;;
78324;SDS011;67584;51.400;6.692;2023-02-22T12:23:00;12.23;;;7.93;;
78324;SDS011;67584;51.400;6.692;2023-02-22T12:25:32;12.30;;;9.05;;
78324;SDS011;67584;51.400;6.692;2023-02-22T12:28:17;14.57;;;8.70;;
78324;SDS011;67584;51.400;6.692;2023-02-22T12:30:50;12.48;;;8.18;;
78324;SDS011;67584;51.400;6.692;2023-02-22T12:33:27;11.45;;;8.85;;
78324;SDS011;67584;51.400;6.692;2023-02-22T12:36:07;12.02;;;9.50;;
78324;SDS011;67584;51.400;6.692;2023-02-22T12:38:40;12.52;;;8.70;;
78324;SDS011;67584;51.400;6.692;2023-02-22T12:41:16;11.80;;;9.15;;
78324;SDS011;67584;51.400;6.692;2023-02-22T12:44:04;13.02;;;9.07;;
78324;SDS011;67584;51.400;6.692;2023-02-22T12:46:39;16.02;;;9.48;;
78324;SDS011;67584;51.400;6.692;2023-02-22T12:52:00;14.70;;;10.77;;
78324;SDS011;67584;51.400;6.692;2023-02-22T13:00:21;15.60;;;11.13;;
78324;SDS011;67584;51.400;6.692;2023-02-22T13:05:25;13.85;;;8.98;;
78324;SDS011;67584;51.400;6.692;2023-02-22T13:10:57;17.33;;;11.60;;
78324;SDS011;67584;51.400;6.692;2023-02-22T13:16:49;18.48;;;9.85;;
78324;SDS011;67584;51.400;6.692;2023-02-22T13:19:29;13.55;;;9.95;;
78324;SDS011;67584;51.400;6.692;2023-02-22T13:27:40;14.52;;;9.70;;
78324;SDS011;67584;51.400;6.692;2023-02-22T13:30:34;12.82;;;9.93;;
78324;SDS011;67584;51.400;6.692;2023-02-22T13:41:31;13.80;;;9.85;;
78324;SDS011;67584;51.400;6.692;2023-02-22T13:52:21;11.73;;;7.57;;
78324;SDS011;67584;51.400;6.692;2023-02-22T13:55:03;10.27;;;7.45;;
78324;SDS011;67584;51.400;6.692;2023-02-22T14:03:01;8.82;;;7.38;;
78324;SDS011;67584;51.400;6.692;2023-02-22T14:05:33;11.50;;;7.80;;
78324;SDS011;67584;51.400;6.692;2023-02-22T14:13:10;9.05;;;7.88;;
78324;SDS011;67584;51.400;6.692;2023-02-22T14:18:21;10.93;;;8.00;;
78324;SDS011;67584;51.400;6.692;2023-02-22T14:21:22;11.90;;;8.07;;
78324;SDS011;67584;51.400;6.692;2023-02-22T14:26:27;12.38;;;7.65;;
78324;SDS011;67584;51.400;6.692;2023-02-22T14:28:56;12.70;;;7.85;;
78324;SDS011;67584;51.400;6.692;2023-02-22T14:31:28;12.50;;;8.60;;
78324;SDS011;67584;51.400;6.692;2023-02-22T14:34:00;11.10;;;7.95;;
78324;SDS011;67584;51.400;6.692;2023-02-22T14:37:01;15.65;;;9.43;;
78324;SDS011;67584;51.400;6.692;2023-02-22T14:42:11;10.10;;;7.40;;
78324;SDS011;67584;51.400;6.692;2023-02-22T14:44:43;16.27;;;7.95;;
78324;SDS011;67584;51.400;6.692;2023-02-22T14:47:40;10.82;;;7.82;;
78324;SDS011;67584;51.400;6.692;2023-02-22T14:55:48;11.35;;;7.78;;
78324;SDS011;67584;51.400;6.692;2023-02-22T14:58:18;12.77;;;7.97;;
78324;SDS011;67584;51.400;6.692;2023-02-22T15:00:48;10.77;;;7.18;;
78324;SDS011;67584;51.400;6.692;2023-02-22T15:06:05;14.77;;;8.30;;
78324;SDS011;67584;51.400;6.692;2023-02-22T15:09:12;11.20;;;7.97;;
78324;SDS011;67584;51.400;6.692;2023-02-22T15:11:51;12.00;;;8.10;;
78324;SDS011;67584;51.400;6.692;2023-02-22T15:14:18;13.48;;;8.35;;
78324;SDS011;67584;51.400;6.692;2023-02-22T15:16:46;11.80;;;7.45;;
78324;SDS011;67584;51.400;6.692;2023-02-22T15:19:15;12.63;;;9.00;;
78324;SDS011;67584;51.400;6.692;2023-02-22T15:21:49;13.23;;;8.40;;
78324;SDS011;67584;51.400;6.692;2023-02-22T15:24:25;13.18;;;8.45;;
78324;SDS011;67584;51.400;6.692;2023-02-22T15:26:53;13.77;;;8.77;;
78324;SDS011;67584;51.400;6.692;2023-02-22T15:29:21;11.85;;;9.30;;
78324;SDS011;67584;51.400;6.692;2023-02-22T15:31:55;13.57;;;9.85;;
78324;SDS011;67584;51.400;6.692;2023-02-22T15:34:26;11.32;;;8.75;;
78324;SDS011;67584;51.400;6.692;2023-02-22T15:36:54;11.45;;;9.35;;
78324;SDS011;67584;51.400;6.692;2023-02-22T15:39:26;12.18;;;9.55;;
78324;SDS011;67584;51.400;6.692;2023-02-22T15:44:36;14.73;;;9.35;;
78324;SDS011;67584;51.400;6.692;2023-02-22T15:47:03;14.43;;;8.98;;
78324;SDS011;67584;51.400;6.692;2023-02-22T15:53:27;14.20;;;10.18;;
78324;SDS011;67584;51.400;6.692;2023-02-22T15:58:30;15.20;;;9.48;;
78324;SDS011;67584;51.400;6.692;2023-02-22T16:03:27;12.63;;;9.88;;
78324;SDS011;67584;51.400;6.692;2023-02-22T16:06:10;13.43;;;9.68;;
78324;SDS011;67584;51.400;6.692;2023-02-22T16:08:41;12.70;;;9.35;;
78324;SDS011;67584;51.400;6.692;2023-02-22T16:11:14;12.05;;;9.52;;
78324;SDS011;67584;51.400;6.692;2023-02-22T16:13:50;15.00;;;10.63;;
78324;SDS011;67584;51.400;6.692;2023-02-22T16:18:51;12.70;;;9.85;;
78324;SDS011;67584;51.400;6.692;2023-02-22T16:21:56;14.73;;;10.45;;
78324;SDS011;67584;51.400;6.692;2023-02-22T16:24:36;15.13;;;10.65;;
78324;SDS011;67584;51.400;6.692;2023-02-22T16:27:15;15.00;;;9.93;;
78324;SDS011;67584;51.400;6.692;2023-02-22T16:29:43;13.48;;;10.85;;
78324;SDS011;67584;51.400;6.692;2023-02-22T16:32:24;19.08;;;10.68;;
78324;SDS011;67584;51.400;6.692;2023-02-22T16:34:50;16.02;;;11.82;;
78324;SDS011;67584;51.400;6.692;2023-02-22T16:37:19;17.10;;;11.70;;
78324;SDS011;67584;51.400;6.692;2023-02-22T16:39:46;14.30;;;10.27;;
78324;SDS011;67584;51.400;6.692;2023-02-22T16:42:15;13.98;;;10.60;;
78324;SDS011;67584;51.400;6.692;2023-02-22T16:44:51;14.80;;;10.30;;
78324;SDS011;67584;51.400;6.692;2023-02-22T16:47:18;15.77;;;11.38;;
78324;SDS011;67584;51.400;6.692;2023-02-22T16:49:46;13.85;;;10.80;;
78324;SDS011;67584;51.400;6.692;2023-02-22T16:52:16;16.58;;;11.32;;
78324;SDS011;67584;51.400;6.692;2023-02-22T16:54:43;16.25;;;10.95;;
78324;SDS011;67584;51.400;6.692;2023-02-22T16:57:14;16.27;;;12.00;;
78324;SDS011;67584;51.400;6.692;2023-02-22T16:59:46;15.48;;;10.82;;
78324;SDS011;67584;51.400;6.692;2023-02-22T17:02:16;17.38;;;11.60;;
78324;SDS011;67584;51.400;6.692;2023-02-22T17:04:43;14.38;;;10.80;;
78324;SDS011;67584;51.400;6.692;2023-02-22T17:07:16;16.98;;;11.57;;
78324;SDS011;67584;51.400;6.692;2023-02-22T17:09:48;17.23;;;12.52;;
78324;SDS011;67584;51.400;6.692;2023-02-22T17:12:15;17.65;;;11.57;;
78324;SDS011;67584;51.400;6.692;2023-02-22T17:14:43;15.95;;;11.75;;
78324;SDS011;67584;51.400;6.692;2023-02-22T17:17:11;18.75;;;11.88;;
78324;SDS011;67584;51.400;6.692;2023-02-22T17:19:37;15.20;;;12.40;;
78324;SDS011;67584;51.400;6.692;2023-02-22T17:22:03;19.38;;;12.75;;
78324;SDS011;67584;51.400;6.692;2023-02-22T17:24:33;16.17;;;11.98;;
78324;SDS011;67584;51.400;6.692;2023-02-22T17:27:00;17.13;;;12.70;;